sensor_id;sensor_type;location;lat;lon;timestamp;P1;durP1;ratioP1;P2;durP2;ratioP2
40997;SDS011;26740;45.944;12.480;2022-10-16T00:01:18;61.70;;;41.85;;
40997;SDS011;26740;45.944;12.480;2022-10-16T00:03:46;61.28;;;42.70;;
40997;SDS011;26740;45.944;12.480;2022-10-16T00:06:12;60.25;;;43.03;;
40997;SDS011;26740;45.944;12.480;2022-10-16T00:08:39;64.53;;;44.15;;
40997;SDS011;26740;45.944;12.480;2022-10-16T00:11:06;59.30;;;43.58;;
40997;SDS011;26740;45.944;12.480;2022-10-16T00:13:37;66.65;;;42.10;;
40997;SDS011;26740;45.944;12.480;2022-10-16T00:16:05;67.85;;;43.42;;
40997;SDS011;26740;45.944;12.480;2022-10-16T00:18:31;57.25;;;41.35;;
40997;SDS011;26740;45.944;12.480;2022-10-16T00:21:04;68.88;;;43.15;;
40997;SDS011;26740;45.944;12.480;2022-10-16T00:23:31;65.18;;;43.03;;
40997;SDS011;26740;45.944;12.480;2022-10-16T00:25:58;64.20;;;43.20;;
40997;SDS011;26740;45.944;12.480;2022-10-16T00:28:26;66.50;;;42.92;;
40997;SDS011;26740;45.944;12.480;2022-10-16T00:30:52;65.00;;;41.42;;
40997;SDS011;26740;45.944;12.480;2022-10-16T00:33:18;60.90;;;42.78;;
40997;SDS011;26740;45.944;12.480;2022-10-16T00:35:44;70.65;;;44.13;;
40997;SDS011;26740;45.944;12.480;2022-10-16T00:38:10;60.78;;;40.83;;
40997;SDS011;26740;45.944;12.480;2022-10-16T00:40:35;66.85;;;45.30;;
40997;SDS011;26740;45.944;12.480;2022-10-16T00:43:01;64.60;;;41.95;;
40997;SDS011;26740;45.944;12.480;2022-10-16T00:45:26;61.40;;;43.08;;
40997;SDS011;26740;45.944;12.480;2022-10-16T00:47:53;63.30;;;41.65;;
40997;SDS011;26740;45.944;12.480;2022-10-16T00:50:26;57.05;;;40.85;;
40997;SDS011;26740;45.944;12.480;2022-10-16T00:52:55;63.08;;;40.22;;
40997;SDS011;26740;45.944;12.480;2022-10-16T00:55:22;67.25;;;44.55;;
40997;SDS011;26740;45.944;12.480;2022-10-16T00:57:49;66.10;;;43.85;;
40997;SDS011;26740;45.944;12.480;2022-10-16T01:00:17;60.40;;;41.03;;
40997;SDS011;26740;45.944;12.480;2022-10-16T01:02:56;60.75;;;41.70;;
40997;SDS011;26740;45.944;12.480;2022-10-16T01:05:30;75.85;;;43.45;;
40997;SDS011;26740;45.944;12.480;2022-10-16T01:08:15;65.50;;;42.88;;
40997;SDS011;26740;45.944;12.480;2022-10-16T01:10:52;62.53;;;40.80;;
40997;SDS011;26740;45.944;12.480;2022-10-16T01:13:27;60.03;;;41.00;;
40997;SDS011;26740;45.944;12.480;2022-10-16T01:18:32;59.85;;;40.13;;
40997;SDS011;26740;45.944;12.480;2022-10-16T01:21:08;63.83;;;41.38;;
40997;SDS011;26740;45.944;12.480;2022-10-16T01:24:03;62.25;;;41.63;;
40997;SDS011;26740;45.944;12.480;2022-10-16T01:27:03;60.30;;;42.65;;
40997;SDS011;26740;45.944;12.480;2022-10-16T01:32:09;62.05;;;41.97;;
40997;SDS011;26740;45.944;12.480;2022-10-16T01:34:42;68.80;;;42.92;;
40997;SDS011;26740;45.944;12.480;2022-10-16T01:37:15;66.90;;;42.85;;
40997;SDS011;26740;45.944;12.480;2022-10-16T01:39:52;61.92;;;41.42;;
40997;SDS011;26740;45.944;12.480;2022-10-16T01:42:24;63.90;;;42.88;;
40997;SDS011;26740;45.944;12.480;2022-10-16T01:44:55;62.00;;;43.15;;
40997;SDS011;26740;45.944;12.480;2022-10-16T01:47:24;63.58;;;42.85;;
40997;SDS011;26740;45.944;12.480;2022-10-16T01:49:52;69.90;;;41.60;;
40997;SDS011;26740;45.944;12.480;2022-10-16T01:52:21;63.22;;;43.33;;
40997;SDS011;26740;45.944;12.480;2022-10-16T01:57:17;68.55;;;43.15;;
40997;SDS011;26740;45.944;12.480;2022-10-16T01:59:50;60.80;;;41.70;;
40997;SDS011;26740;45.944;12.480;2022-10-16T02:02:20;63.10;;;42.58;;
40997;SDS011;26740;45.944;12.480;2022-10-16T02:05:10;66.68;;;42.28;;
40997;SDS011;26740;45.944;12.480;2022-10-16T02:07:53;60.80;;;41.55;;
40997;SDS011;26740;45.944;12.480;2022-10-16T02:10:19;70.07;;;43.42;;
40997;SDS011;26740;45.944;12.480;2022-10-16T02:12:48;61.17;;;41.03;;
40997;SDS011;26740;45.944;12.480;2022-10-16T02:15:21;64.30;;;42.78;;
40997;SDS011;26740;45.944;12.480;2022-10-16T02:17:47;65.15;;;43.67;;
40997;SDS011;26740;45.944;12.480;2022-10-16T02:20:12;64.30;;;43.22;;
40997;SDS011;26740;45.944;12.480;2022-10-16T02:22:39;64.78;;;42.67;;
40997;SDS011;26740;45.944;12.480;2022-10-16T02:25:17;56.88;;;41.13;;
40997;SDS011;26740;45.944;12.480;2022-10-16T02:28:24;66.32;;;42.05;;
40997;SDS011;26740;45.944;12.480;2022-10-16T02:35:54;62.15;;;41.42;;
40997;SDS011;26740;45.944;12.480;2022-10-16T02:38:21;65.72;;;42.67;;
40997;SDS011;26740;45.944;12.480;2022-10-16T02:40:48;60.15;;;41.30;;
40997;SDS011;26740;45.944;12.480;2022-10-16T02:43:14;55.70;;;39.33;;
40997;SDS011;26740;45.944;12.480;2022-10-16T02:45:41;60.38;;;39.53;;
40997;SDS011;26740;45.944;12.480;2022-10-16T02:48:06;60.08;;;41.25;;
40997;SDS011;26740;45.944;12.480;2022-10-16T02:50:32;60.78;;;41.13;;
40997;SDS011;26740;45.944;12.480;2022-10-16T02:52:57;56.63;;;39.70;;
40997;SDS011;26740;45.944;12.480;2022-10-16T02:55:23;63.63;;;40.75;;
40997;SDS011;26740;45.944;12.480;2022-10-16T02:57:48;62.90;;;40.80;;
40997;SDS011;26740;45.944;12.480;2022-10-16T03:00:15;55.63;;;38.95;;
40997;SDS011;26740;45.944;12.480;2022-10-16T03:02:42;61.25;;;41.63;;
40997;SDS011;26740;45.944;12.480;2022-10-16T03:05:08;65.32;;;40.80;;
40997;SDS011;26740;45.944;12.480;2022-10-16T03:07:35;59.45;;;40.63;;
40997;SDS011;26740;45.944;12.480;2022-10-16T03:10:00;58.90;;;41.47;;
40997;SDS011;26740;45.944;12.480;2022-10-16T03:12:27;58.40;;;40.80;;
40997;SDS011;26740;45.944;12.480;2022-10-16T03:14:53;57.67;;;39.72;;
40997;SDS011;26740;45.944;12.480;2022-10-16T03:17:18;60.78;;;40.70;;
40997;SDS011;26740;45.944;12.480;2022-10-16T03:19:44;58.15;;;39.42;;
40997;SDS011;26740;45.944;12.480;2022-10-16T03:22:10;60.58;;;41.00;;
40997;SDS011;26740;45.944;12.480;2022-10-16T03:24:36;63.33;;;41.17;;
40997;SDS011;26740;45.944;12.480;2022-10-16T03:27:01;64.78;;;41.00;;
40997;SDS011;26740;45.944;12.480;2022-10-16T03:29:27;61.63;;;41.50;;
40997;SDS011;26740;45.944;12.480;2022-10-16T03:31:54;65.43;;;42.50;;
40997;SDS011;26740;45.944;12.480;2022-10-16T03:34:20;64.47;;;41.80;;
40997;SDS011;26740;45.944;12.480;2022-10-16T03:36:47;58.53;;;41.78;;
40997;SDS011;26740;45.944;12.480;2022-10-16T03:39:12;64.00;;;40.45;;
40997;SDS011;26740;45.944;12.480;2022-10-16T03:41:38;63.45;;;42.80;;
40997;SDS011;26740;45.944;12.480;2022-10-16T03:44:04;56.80;;;40.17;;
40997;SDS011;26740;45.944;12.480;2022-10-16T03:46:30;61.10;;;40.40;;
40997;SDS011;26740;45.944;12.480;2022-10-16T03:48:56;60.78;;;40.35;;
40997;SDS011;26740;45.944;12.480;2022-10-16T03:51:22;63.45;;;41.00;;
40997;SDS011;26740;45.944;12.480;2022-10-16T03:53:48;55.22;;;38.45;;
40997;SDS011;26740;45.944;12.480;2022-10-16T03:56:13;61.35;;;42.22;;
40997;SDS011;26740;45.944;12.480;2022-10-16T03:58:39;58.60;;;38.92;;
40997;SDS011;26740;45.944;12.480;2022-10-16T04:01:04;57.22;;;39.88;;
40997;SDS011;26740;45.944;12.480;2022-10-16T04:03:30;63.22;;;40.85;;
40997;SDS011;26740;45.944;12.480;2022-10-16T04:05:56;62.83;;;41.65;;
40997;SDS011;26740;45.944;12.480;2022-10-16T04:08:22;59.60;;;39.95;;
40997;SDS011;26740;45.944;12.480;2022-10-16T04:10:48;60.30;;;39.90;;
40997;SDS011;26740;45.944;12.480;2022-10-16T04:13:13;55.63;;;38.90;;
40997;SDS011;26740;45.944;12.480;2022-10-16T04:15:39;57.10;;;39.22;;
40997;SDS011;26740;45.944;12.480;2022-10-16T04:18:05;56.75;;;39.17;;
40997;SDS011;26740;45.944;12.480;2022-10-16T04:20:31;57.50;;;40.05;;
40997;SDS011;26740;45.944;12.480;2022-10-16T04:22:56;61.00;;;40.60;;
40997;SDS011;26740;45.944;12.480;2022-10-16T04:25:22;59.25;;;39.35;;
40997;SDS011;26740;45.944;12.480;2022-10-16T04:27:47;59.47;;;40.90;;
40997;SDS011;26740;45.944;12.480;2022-10-16T04:30:13;57.88;;;38.17;;
40997;SDS011;26740;45.944;12.480;2022-10-16T04:32:39;63.63;;;41.78;;
40997;SDS011;26740;45.944;12.480;2022-10-16T04:35:07;59.40;;;40.72;;
40997;SDS011;26740;45.944;12.480;2022-10-16T04:37:33;60.40;;;40.25;;
40997;SDS011;26740;45.944;12.480;2022-10-16T04:39:58;66.85;;;42.63;;
40997;SDS011;26740;45.944;12.480;2022-10-16T04:42:24;62.25;;;41.25;;
40997;SDS011;26740;45.944;12.480;2022-10-16T04:44:49;62.25;;;39.55;;
40997;SDS011;26740;45.944;12.480;2022-10-16T04:47:15;63.40;;;42.08;;
40997;SDS011;26740;45.944;12.480;2022-10-16T04:49:40;64.40;;;43.03;;
40997;SDS011;26740;45.944;12.480;2022-10-16T04:52:06;60.75;;;39.28;;
40997;SDS011;26740;45.944;12.480;2022-10-16T04:54:34;68.80;;;39.58;;
40997;SDS011;26740;45.944;12.480;2022-10-16T04:56:59;64.63;;;40.20;;
40997;SDS011;26740;45.944;12.480;2022-10-16T04:59:25;70.93;;;41.60;;
40997;SDS011;26740;45.944;12.480;2022-10-16T05:01:50;60.70;;;39.92;;
40997;SDS011;26740;45.944;12.480;2022-10-16T05:04:16;58.67;;;40.17;;
40997;SDS011;26740;45.944;12.480;2022-10-16T05:06:42;66.05;;;40.20;;
40997;SDS011;26740;45.944;12.480;2022-10-16T05:09:08;60.83;;;39.88;;
40997;SDS011;26740;45.944;12.480;2022-10-16T05:11:34;61.42;;;40.22;;
40997;SDS011;26740;45.944;12.480;2022-10-16T05:14:00;61.08;;;38.58;;
40997;SDS011;26740;45.944;12.480;2022-10-16T05:16:26;69.13;;;39.10;;
40997;SDS011;26740;45.944;12.480;2022-10-16T05:18:52;64.93;;;39.95;;
40997;SDS011;26740;45.944;12.480;2022-10-16T05:21:18;61.65;;;39.28;;
40997;SDS011;26740;45.944;12.480;2022-10-16T05:23:44;62.05;;;40.08;;
40997;SDS011;26740;45.944;12.480;2022-10-16T05:26:10;62.05;;;39.28;;
40997;SDS011;26740;45.944;12.480;2022-10-16T05:28:36;62.97;;;40.05;;
40997;SDS011;26740;45.944;12.480;2022-10-16T05:31:08;65.72;;;41.83;;
40997;SDS011;26740;45.944;12.480;2022-10-16T05:33:34;61.72;;;40.33;;
40997;SDS011;26740;45.944;12.480;2022-10-16T05:36:04;64.13;;;39.78;;
40997;SDS011;26740;45.944;12.480;2022-10-16T05:38:32;63.42;;;38.95;;
40997;SDS011;26740;45.944;12.480;2022-10-16T05:40:59;57.40;;;38.40;;
40997;SDS011;26740;45.944;12.480;2022-10-16T05:43:24;68.88;;;41.15;;
40997;SDS011;26740;45.944;12.480;2022-10-16T05:48:20;61.78;;;39.30;;
40997;SDS011;26740;45.944;12.480;2022-10-16T05:50:46;56.30;;;38.38;;
40997;SDS011;26740;45.944;12.480;2022-10-16T05:53:11;59.42;;;39.40;;
40997;SDS011;26740;45.944;12.480;2022-10-16T05:55:37;60.38;;;39.75;;
40997;SDS011;26740;45.944;12.480;2022-10-16T05:58:02;60.75;;;39.75;;
40997;SDS011;26740;45.944;12.480;2022-10-16T06:00:28;60.05;;;38.75;;
40997;SDS011;26740;45.944;12.480;2022-10-16T06:02:53;61.70;;;38.83;;
40997;SDS011;26740;45.944;12.480;2022-10-16T06:05:19;56.75;;;38.25;;
40997;SDS011;26740;45.944;12.480;2022-10-16T06:07:44;54.67;;;36.78;;
40997;SDS011;26740;45.944;12.480;2022-10-16T06:10:10;53.83;;;37.30;;
40997;SDS011;26740;45.944;12.480;2022-10-16T06:12:35;59.53;;;39.80;;
40997;SDS011;26740;45.944;12.480;2022-10-16T06:15:01;54.53;;;37.63;;
40997;SDS011;26740;45.944;12.480;2022-10-16T06:17:26;56.92;;;38.15;;
40997;SDS011;26740;45.944;12.480;2022-10-16T06:19:52;54.95;;;37.38;;
40997;SDS011;26740;45.944;12.480;2022-10-16T06:22:18;59.22;;;37.50;;
40997;SDS011;26740;45.944;12.480;2022-10-16T06:24:43;58.42;;;38.47;;
40997;SDS011;26740;45.944;12.480;2022-10-16T06:27:09;58.88;;;39.17;;
40997;SDS011;26740;45.944;12.480;2022-10-16T06:29:34;55.60;;;39.30;;
40997;SDS011;26740;45.944;12.480;2022-10-16T06:32:00;57.13;;;37.95;;
40997;SDS011;26740;45.944;12.480;2022-10-16T06:34:25;57.55;;;36.70;;
40997;SDS011;26740;45.944;12.480;2022-10-16T06:36:51;57.33;;;37.65;;
40997;SDS011;26740;45.944;12.480;2022-10-16T06:39:16;51.13;;;35.65;;
40997;SDS011;26740;45.944;12.480;2022-10-16T06:41:42;58.28;;;37.72;;
40997;SDS011;26740;45.944;12.480;2022-10-16T06:44:07;53.05;;;35.78;;
40997;SDS011;26740;45.944;12.480;2022-10-16T06:46:33;55.17;;;36.58;;
40997;SDS011;26740;45.944;12.480;2022-10-16T06:48:59;50.60;;;33.25;;
40997;SDS011;26740;45.944;12.480;2022-10-16T06:51:25;53.70;;;35.17;;
40997;SDS011;26740;45.944;12.480;2022-10-16T06:53:52;55.00;;;34.72;;
40997;SDS011;26740;45.944;12.480;2022-10-16T06:56:25;62.17;;;37.30;;
40997;SDS011;26740;45.944;12.480;2022-10-16T06:58:52;49.92;;;33.58;;
40997;SDS011;26740;45.944;12.480;2022-10-16T07:01:20;52.00;;;37.08;;
40997;SDS011;26740;45.944;12.480;2022-10-16T07:03:48;54.85;;;35.92;;
40997;SDS011;26740;45.944;12.480;2022-10-16T07:06:15;52.67;;;36.83;;
40997;SDS011;26740;45.944;12.480;2022-10-16T07:08:55;73.72;;;37.00;;
40997;SDS011;26740;45.944;12.480;2022-10-16T07:11:21;53.85;;;35.88;;
40997;SDS011;26740;45.944;12.480;2022-10-16T07:13:50;51.53;;;34.15;;
40997;SDS011;26740;45.944;12.480;2022-10-16T07:16:20;48.63;;;35.33;;
40997;SDS011;26740;45.944;12.480;2022-10-16T07:18:51;52.05;;;35.50;;
40997;SDS011;26740;45.944;12.480;2022-10-16T07:21:23;51.15;;;35.28;;
40997;SDS011;26740;45.944;12.480;2022-10-16T07:23:51;50.55;;;34.45;;
40997;SDS011;26740;45.944;12.480;2022-10-16T07:26:17;48.13;;;35.35;;
40997;SDS011;26740;45.944;12.480;2022-10-16T07:28:43;48.78;;;35.80;;
40997;SDS011;26740;45.944;12.480;2022-10-16T07:31:10;51.92;;;34.97;;
40997;SDS011;26740;45.944;12.480;2022-10-16T07:33:39;49.95;;;36.22;;
40997;SDS011;26740;45.944;12.480;2022-10-16T07:36:09;48.28;;;35.90;;
40997;SDS011;26740;45.944;12.480;2022-10-16T07:38:35;48.00;;;36.60;;
40997;SDS011;26740;45.944;12.480;2022-10-16T07:41:02;47.13;;;34.00;;
40997;SDS011;26740;45.944;12.480;2022-10-16T07:43:30;47.63;;;34.35;;
40997;SDS011;26740;45.944;12.480;2022-10-16T07:45:56;53.30;;;34.33;;
40997;SDS011;26740;45.944;12.480;2022-10-16T07:48:23;46.25;;;33.85;;
40997;SDS011;26740;45.944;12.480;2022-10-16T07:50:49;50.88;;;34.80;;
40997;SDS011;26740;45.944;12.480;2022-10-16T07:53:15;63.83;;;35.55;;
40997;SDS011;26740;45.944;12.480;2022-10-16T07:55:41;44.58;;;34.17;;
40997;SDS011;26740;45.944;12.480;2022-10-16T07:58:07;59.05;;;34.67;;
40997;SDS011;26740;45.944;12.480;2022-10-16T08:00:32;53.45;;;35.97;;
40997;SDS011;26740;45.944;12.480;2022-10-16T08:02:58;47.83;;;35.13;;
40997;SDS011;26740;45.944;12.480;2022-10-16T08:05:28;47.63;;;34.05;;
40997;SDS011;26740;45.944;12.480;2022-10-16T08:07:54;46.95;;;35.83;;
40997;SDS011;26740;45.944;12.480;2022-10-16T08:10:22;42.88;;;32.80;;
40997;SDS011;26740;45.944;12.480;2022-10-16T08:12:49;43.42;;;33.80;;
40997;SDS011;26740;45.944;12.480;2022-10-16T08:15:16;44.38;;;33.60;;
40997;SDS011;26740;45.944;12.480;2022-10-16T08:17:42;45.92;;;34.08;;
40997;SDS011;26740;45.944;12.480;2022-10-16T08:20:08;40.88;;;33.72;;
40997;SDS011;26740;45.944;12.480;2022-10-16T08:22:34;45.60;;;34.65;;
40997;SDS011;26740;45.944;12.480;2022-10-16T08:24:59;47.20;;;33.85;;
40997;SDS011;26740;45.944;12.480;2022-10-16T08:27:30;68.25;;;35.65;;
40997;SDS011;26740;45.944;12.480;2022-10-16T08:29:57;42.83;;;34.55;;
40997;SDS011;26740;45.944;12.480;2022-10-16T08:32:22;41.10;;;32.38;;
40997;SDS011;26740;45.944;12.480;2022-10-16T08:34:48;47.28;;;33.70;;
40997;SDS011;26740;45.944;12.480;2022-10-16T08:37:13;47.47;;;36.22;;
40997;SDS011;26740;45.944;12.480;2022-10-16T08:39:39;53.05;;;35.17;;
40997;SDS011;26740;45.944;12.480;2022-10-16T08:45:03;45.67;;;34.97;;
40997;SDS011;26740;45.944;12.480;2022-10-16T08:47:48;50.03;;;36.85;;
40997;SDS011;26740;45.944;12.480;2022-10-16T08:50:33;45.97;;;35.67;;
40997;SDS011;26740;45.944;12.480;2022-10-16T08:53:03;44.85;;;36.75;;
40997;SDS011;26740;45.944;12.480;2022-10-16T08:56:04;44.20;;;35.38;;
40997;SDS011;26740;45.944;12.480;2022-10-16T08:58:27;48.38;;;36.80;;
40997;SDS011;26740;45.944;12.480;2022-10-16T09:01:00;49.63;;;36.47;;
40997;SDS011;26740;45.944;12.480;2022-10-16T09:20:30;60.15;;;42.08;;
40997;SDS011;26740;45.944;12.480;2022-10-16T09:23:16;57.80;;;41.75;;
40997;SDS011;26740;45.944;12.480;2022-10-16T09:25:48;61.47;;;42.35;;
40997;SDS011;26740;45.944;12.480;2022-10-16T09:28:16;59.85;;;40.83;;
40997;SDS011;26740;45.944;12.480;2022-10-16T09:30:43;63.95;;;43.05;;
40997;SDS011;26740;45.944;12.480;2022-10-16T09:33:10;54.90;;;41.30;;
40997;SDS011;26740;45.944;12.480;2022-10-16T09:38:04;58.97;;;42.38;;
40997;SDS011;26740;45.944;12.480;2022-10-16T09:40:32;58.47;;;41.53;;
40997;SDS011;26740;45.944;12.480;2022-10-16T09:43:14;58.50;;;42.28;;
40997;SDS011;26740;45.944;12.480;2022-10-16T09:46:01;62.10;;;42.65;;
40997;SDS011;26740;45.944;12.480;2022-10-16T09:48:32;57.60;;;43.22;;
40997;SDS011;26740;45.944;12.480;2022-10-16T09:51:19;52.70;;;39.60;;
40997;SDS011;26740;45.944;12.480;2022-10-16T09:53:48;57.72;;;41.25;;
40997;SDS011;26740;45.944;12.480;2022-10-16T09:56:21;55.50;;;40.97;;
40997;SDS011;26740;45.944;12.480;2022-10-16T09:58:49;58.15;;;44.65;;
40997;SDS011;26740;45.944;12.480;2022-10-16T10:01:17;62.70;;;45.95;;
40997;SDS011;26740;45.944;12.480;2022-10-16T10:03:45;53.72;;;42.28;;
40997;SDS011;26740;45.944;12.480;2022-10-16T10:06:28;63.00;;;43.40;;
40997;SDS011;26740;45.944;12.480;2022-10-16T10:09:06;68.72;;;46.05;;
40997;SDS011;26740;45.944;12.480;2022-10-16T10:14:25;54.50;;;42.08;;
40997;SDS011;26740;45.944;12.480;2022-10-16T10:17:00;61.15;;;41.53;;
40997;SDS011;26740;45.944;12.480;2022-10-16T10:19:38;63.75;;;41.60;;
40997;SDS011;26740;45.944;12.480;2022-10-16T10:27:45;60.33;;;41.22;;
40997;SDS011;26740;45.944;12.480;2022-10-16T10:43:53;57.35;;;43.30;;
40997;SDS011;26740;45.944;12.480;2022-10-16T10:55:23;65.43;;;43.13;;
40997;SDS011;26740;45.944;12.480;2022-10-16T10:58:06;59.33;;;42.42;;
40997;SDS011;26740;45.944;12.480;2022-10-16T11:06:12;54.25;;;40.15;;
40997;SDS011;26740;45.944;12.480;2022-10-16T11:09:11;53.63;;;39.85;;
40997;SDS011;26740;45.944;12.480;2022-10-16T11:11:39;57.08;;;39.78;;
40997;SDS011;26740;45.944;12.480;2022-10-16T11:17:05;53.88;;;40.45;;
40997;SDS011;26740;45.944;12.480;2022-10-16T11:19:39;51.58;;;39.10;;
40997;SDS011;26740;45.944;12.480;2022-10-16T11:25:06;50.45;;;35.70;;
40997;SDS011;26740;45.944;12.480;2022-10-16T11:27:45;50.03;;;38.47;;
40997;SDS011;26740;45.944;12.480;2022-10-16T11:30:23;55.70;;;40.22;;
40997;SDS011;26740;45.944;12.480;2022-10-16T11:38:29;51.83;;;37.80;;
40997;SDS011;26740;45.944;12.480;2022-10-16T11:41:44;51.40;;;37.15;;
40997;SDS011;26740;45.944;12.480;2022-10-16T11:46:40;55.42;;;37.95;;
40997;SDS011;26740;45.944;12.480;2022-10-16T11:49:14;55.42;;;37.72;;
40997;SDS011;26740;45.944;12.480;2022-10-16T11:54:45;54.90;;;37.90;;
40997;SDS011;26740;45.944;12.480;2022-10-16T11:58:03;54.95;;;38.40;;
40997;SDS011;26740;45.944;12.480;2022-10-16T12:00:10;49.03;;;35.60;;
40997;SDS011;26740;45.944;12.480;2022-10-16T12:05:54;51.92;;;36.97;;
40997;SDS011;26740;45.944;12.480;2022-10-16T12:08:39;51.30;;;37.03;;
40997;SDS011;26740;45.944;12.480;2022-10-16T12:11:08;49.05;;;34.90;;
40997;SDS011;26740;45.944;12.480;2022-10-16T12:16:54;50.90;;;37.05;;
40997;SDS011;26740;45.944;12.480;2022-10-16T12:19:23;55.92;;;37.13;;
40997;SDS011;26740;45.944;12.480;2022-10-16T12:21:51;49.30;;;36.53;;
40997;SDS011;26740;45.944;12.480;2022-10-16T12:24:41;51.75;;;35.63;;
40997;SDS011;26740;45.944;12.480;2022-10-16T12:30:05;49.10;;;33.78;;
40997;SDS011;26740;45.944;12.480;2022-10-16T12:32:33;48.50;;;33.97;;
40997;SDS011;26740;45.944;12.480;2022-10-16T12:35:02;44.65;;;33.80;;
40997;SDS011;26740;45.944;12.480;2022-10-16T12:39:59;51.70;;;34.25;;
40997;SDS011;26740;45.944;12.480;2022-10-16T12:42:38;54.83;;;35.83;;
40997;SDS011;26740;45.944;12.480;2022-10-16T12:45:22;49.88;;;34.65;;
40997;SDS011;26740;45.944;12.480;2022-10-16T12:47:55;52.63;;;34.05;;
40997;SDS011;26740;45.944;12.480;2022-10-16T12:53:00;53.70;;;36.43;;
40997;SDS011;26740;45.944;12.480;2022-10-16T12:55:34;46.75;;;35.22;;
40997;SDS011;26740;45.944;12.480;2022-10-16T12:58:12;51.90;;;36.55;;
40997;SDS011;26740;45.944;12.480;2022-10-16T13:00:59;46.83;;;34.78;;
40997;SDS011;26740;45.944;12.480;2022-10-16T13:12:01;53.47;;;36.20;;
40997;SDS011;26740;45.944;12.480;2022-10-16T13:14:53;55.83;;;38.35;;
40997;SDS011;26740;45.944;12.480;2022-10-16T13:17:42;56.60;;;35.45;;
40997;SDS011;26740;45.944;12.480;2022-10-16T13:20:21;50.63;;;38.28;;
40997;SDS011;26740;45.944;12.480;2022-10-16T13:23:13;51.00;;;37.85;;
40997;SDS011;26740;45.944;12.480;2022-10-16T13:29:15;51.78;;;36.38;;
40997;SDS011;26740;45.944;12.480;2022-10-16T13:31:42;52.40;;;35.88;;
40997;SDS011;26740;45.944;12.480;2022-10-16T13:34:11;55.58;;;38.92;;
40997;SDS011;26740;45.944;12.480;2022-10-16T13:36:45;51.45;;;37.30;;
40997;SDS011;26740;45.944;12.480;2022-10-16T13:39:27;51.50;;;35.28;;
40997;SDS011;26740;45.944;12.480;2022-10-16T13:44:25;49.90;;;35.08;;
40997;SDS011;26740;45.944;12.480;2022-10-16T13:46:58;52.45;;;37.53;;
40997;SDS011;26740;45.944;12.480;2022-10-16T13:49:26;49.47;;;36.60;;
40997;SDS011;26740;45.944;12.480;2022-10-16T13:51:55;59.90;;;37.63;;
40997;SDS011;26740;45.944;12.480;2022-10-16T13:54:23;57.15;;;37.15;;
40997;SDS011;26740;45.944;12.480;2022-10-16T13:56:49;49.33;;;37.80;;
40997;SDS011;26740;45.944;12.480;2022-10-16T13:59:32;51.30;;;37.80;;
40997;SDS011;26740;45.944;12.480;2022-10-16T14:01:59;53.72;;;39.20;;
40997;SDS011;26740;45.944;12.480;2022-10-16T14:04:31;50.53;;;36.70;;
40997;SDS011;26740;45.944;12.480;2022-10-16T14:06:58;52.05;;;37.22;;
40997;SDS011;26740;45.944;12.480;2022-10-16T14:09:25;57.67;;;37.38;;
40997;SDS011;26740;45.944;12.480;2022-10-16T14:14:22;57.03;;;39.58;;
40997;SDS011;26740;45.944;12.480;2022-10-16T14:16:48;49.35;;;36.83;;
40997;SDS011;26740;45.944;12.480;2022-10-16T14:19:24;54.08;;;38.90;;
40997;SDS011;26740;45.944;12.480;2022-10-16T14:21:52;52.42;;;36.58;;
40997;SDS011;26740;45.944;12.480;2022-10-16T14:26:56;49.97;;;36.25;;
40997;SDS011;26740;45.944;12.480;2022-10-16T14:29:23;48.83;;;35.72;;
40997;SDS011;26740;45.944;12.480;2022-10-16T14:32:00;55.08;;;36.92;;
40997;SDS011;26740;45.944;12.480;2022-10-16T14:34:35;53.95;;;38.33;;
40997;SDS011;26740;45.944;12.480;2022-10-16T14:37:24;58.38;;;39.42;;
40997;SDS011;26740;45.944;12.480;2022-10-16T14:39:51;53.33;;;37.95;;
40997;SDS011;26740;45.944;12.480;2022-10-16T14:42:19;53.95;;;37.70;;
40997;SDS011;26740;45.944;12.480;2022-10-16T14:44:49;54.85;;;38.67;;
40997;SDS011;26740;45.944;12.480;2022-10-16T14:47:20;57.28;;;39.17;;
40997;SDS011;26740;45.944;12.480;2022-10-16T14:49:50;56.40;;;38.53;;
40997;SDS011;26740;45.944;12.480;2022-10-16T14:52:18;51.63;;;37.72;;
40997;SDS011;26740;45.944;12.480;2022-10-16T14:54:43;49.05;;;35.42;;
40997;SDS011;26740;45.944;12.480;2022-10-16T14:57:17;54.17;;;37.78;;
40997;SDS011;26740;45.944;12.480;2022-10-16T14:59:46;52.20;;;36.85;;
40997;SDS011;26740;45.944;12.480;2022-10-16T15:02:16;52.70;;;37.65;;
40997;SDS011;26740;45.944;12.480;2022-10-16T15:07:19;55.08;;;38.75;;
40997;SDS011;26740;45.944;12.480;2022-10-16T15:09:45;53.80;;;38.38;;
40997;SDS011;26740;45.944;12.480;2022-10-16T15:12:10;53.40;;;37.55;;
40997;SDS011;26740;45.944;12.480;2022-10-16T15:14:36;57.83;;;39.35;;
40997;SDS011;26740;45.944;12.480;2022-10-16T15:17:03;52.33;;;37.75;;
40997;SDS011;26740;45.944;12.480;2022-10-16T15:19:29;53.20;;;36.97;;
40997;SDS011;26740;45.944;12.480;2022-10-16T15:21:55;53.30;;;37.03;;
40997;SDS011;26740;45.944;12.480;2022-10-16T15:24:21;51.25;;;37.75;;
40997;SDS011;26740;45.944;12.480;2022-10-16T15:26:47;49.55;;;36.75;;
40997;SDS011;26740;45.944;12.480;2022-10-16T15:29:14;49.13;;;37.00;;
40997;SDS011;26740;45.944;12.480;2022-10-16T15:31:40;57.13;;;37.92;;
40997;SDS011;26740;45.944;12.480;2022-10-16T15:34:12;49.33;;;36.60;;
40997;SDS011;26740;45.944;12.480;2022-10-16T15:36:38;51.45;;;36.35;;
40997;SDS011;26740;45.944;12.480;2022-10-16T15:39:17;53.80;;;37.35;;
40997;SDS011;26740;45.944;12.480;2022-10-16T15:41:45;59.25;;;38.67;;
40997;SDS011;26740;45.944;12.480;2022-10-16T15:44:19;62.05;;;39.40;;
40997;SDS011;26740;45.944;12.480;2022-10-16T15:46:47;51.05;;;35.63;;
40997;SDS011;26740;45.944;12.480;2022-10-16T15:49:13;52.90;;;37.40;;
40997;SDS011;26740;45.944;12.480;2022-10-16T15:51:40;53.88;;;38.60;;
40997;SDS011;26740;45.944;12.480;2022-10-16T15:54:07;50.70;;;37.42;;
40997;SDS011;26740;45.944;12.480;2022-10-16T15:56:34;54.05;;;37.75;;
40997;SDS011;26740;45.944;12.480;2022-10-16T15:59:01;54.67;;;37.88;;
40997;SDS011;26740;45.944;12.480;2022-10-16T16:01:28;55.55;;;38.65;;
40997;SDS011;26740;45.944;12.480;2022-10-16T16:03:57;54.20;;;39.13;;
40997;SDS011;26740;45.944;12.480;2022-10-16T16:06:23;58.00;;;40.35;;
40997;SDS011;26740;45.944;12.480;2022-10-16T16:08:51;52.05;;;38.38;;
40997;SDS011;26740;45.944;12.480;2022-10-16T16:11:19;60.17;;;42.53;;
40997;SDS011;26740;45.944;12.480;2022-10-16T16:13:47;63.63;;;44.10;;
40997;SDS011;26740;45.944;12.480;2022-10-16T16:16:14;66.43;;;46.30;;
40997;SDS011;26740;45.944;12.480;2022-10-16T16:18:41;61.83;;;43.72;;
40997;SDS011;26740;45.944;12.480;2022-10-16T16:21:09;60.85;;;41.58;;
40997;SDS011;26740;45.944;12.480;2022-10-16T16:23:36;61.97;;;42.95;;
40997;SDS011;26740;45.944;12.480;2022-10-16T16:26:03;56.55;;;41.25;;
40997;SDS011;26740;45.944;12.480;2022-10-16T16:28:31;70.53;;;45.05;;
40997;SDS011;26740;45.944;12.480;2022-10-16T16:30:57;66.22;;;43.65;;